Glenwood Springs, CO (81602)

1:45 AM MDT en Octubre 24, 2014 (GMT -0600)
South Glenwood Springs | Change Station
CLOSE
Current Station
Estación meteorológica personal
Location: Glenwood Springs, CO
Altura: 5910 ft
Estaciones meteorológicas cercanas

Alt 5910 ft 39.51 °N, 107.31 °W | Updated 18 seconds ago

Despejado
Despejado
38.8 ° F
Sensación térmica 39 ° F
N
2.0
Viento Variable Viento desde Este
Gusts 4.0 mph

Hoy
Alta -- | Baja -- ° F
--% Posibilidad de precipitaciones
Ayer
Alta -- | Baja -- ° F
Precip. -- pul
7:28 AM 6:17 PM
Luna nueva, 0% visible
Presión 30.19 pul
Visibilidad 10.0 Millas
Nubes Despejado
Vientos helados 39 ° F
Punto de rocío 33 ° F
Humedad 79%
Precipitaciones -999.00 pul
Espesor de la nieve No disponible.
UV 0.0 de una escala de 12
Polen 1.40 de una escala de 12
Calidad del aire No disponible.
Flu Activity Sporadic
METAR KRIL 240653Z AUTO 00000KT 10SM CLR 06/03 A3027 RMK AO2 SLP222 T00560028 402060011

More Conditions Fewer Conditions

Presión 30.19 pul
Visibilidad 10.0 Millas
Nubes Despejado
Vientos helados 39 ° F
Punto de rocío 33 ° F
Humedad 79%
Precipitaciones -999.00 pul
Espesor de la nieve No disponible.
UV 0.0 de una escala de 12
Polen 1.40 de una escala de 12
Calidad del aire No disponible.
Flu Activity Sporadic
METAR KRIL 240653Z AUTO 00000KT 10SM CLR 06/03 A3027 RMK AO2 SLP222 T00560028 402060011

More Conditions Fewer Conditions

10-Day Weather Forecast

Almanac

Astronomía

Oct. 24, 2014 Salida Puesta
Hora real 7:28 AM MDT 6:17 PM MDT
Crepúsculo civil 7:01 AM MDT 6:44 PM MDT
Crepúsculo náutico 6:29 AM MDT 7:16 PM MDT
Crepúsculo astronómico 5:58 AM MDT 7:47 PM MDT
Luna 8:10 AM MDT 6:59 PM MDT
Horas de luz 11h 43m
Horas de luz
10h 48m
Tomorrow will be 2m 22s shorter.
Luna nueva, 0% of the Moon is Illuminated
Hoy
Luna nueva
Oct 30
Cuarto creciente
Nov 6
Luna llena
Nov 14
Cuarto menguante
Nov 22
Nueva

Extremos de hoy

Máximos del estado Bajos del estado

Community

WunderPhotos

Upload Photos

1,764,512 ¡fotos cargadas!

WunderBlogs® & News

Nearby

Grosos de nieve

Estación Profundido Altura
Bison Lake 1 in 10880 ft
McClure Pass 1 in 9500 ft
Burro Mountain 0 in 9400 ft
North Lost Trail 0 in 9200 ft
Overland Reservoir 0 in 9880 ft

Actividad de terremotos

Ciudad Distance Mag. Tiempo y dato
No hay informes recientes de la actividad sísmica.
Magnitud mínima muestra es 2,5.

Temperaturas de aguas costeras

Lugar Temperatura
Sin partes meteorológicos de las estaciones

Estaciones meteorológicas cercanas